sensor_id;sensor_type;location;lat;lon;timestamp;P1;durP1;ratioP1;P2;durP2;ratioP2
51286;SDS011;37364;46.974;18.916;2022-08-05T00:00:54;8.30;;;4.13;;
51286;SDS011;37364;46.974;18.916;2022-08-05T00:03:45;5.63;;;3.63;;
51286;SDS011;37364;46.974;18.916;2022-08-05T00:06:18;13.80;;;3.50;;
51286;SDS011;37364;46.974;18.916;2022-08-05T00:08:58;9.50;;;3.28;;
51286;SDS011;37364;46.974;18.916;2022-08-05T00:11:38;9.68;;;3.10;;
51286;SDS011;37364;46.974;18.916;2022-08-05T00:14:18;18.38;;;3.78;;
51286;SDS011;37364;46.974;18.916;2022-08-05T00:16:55;8.27;;;3.97;;
51286;SDS011;37364;46.974;18.916;2022-08-05T00:19:27;15.30;;;4.45;;
51286;SDS011;37364;46.974;18.916;2022-08-05T00:22:21;10.60;;;4.10;;
51286;SDS011;37364;46.974;18.916;2022-08-05T00:24:51;9.13;;;3.80;;
51286;SDS011;37364;46.974;18.916;2022-08-05T00:27:21;11.07;;;3.85;;
51286;SDS011;37364;46.974;18.916;2022-08-05T00:30:04;8.25;;;3.15;;
51286;SDS011;37364;46.974;18.916;2022-08-05T00:32:37;6.00;;;3.85;;
51286;SDS011;37364;46.974;18.916;2022-08-05T00:35:08;13.93;;;5.03;;
51286;SDS011;37364;46.974;18.916;2022-08-05T00:37:41;10.63;;;5.47;;
51286;SDS011;37364;46.974;18.916;2022-08-05T00:40:20;18.02;;;5.85;;
51286;SDS011;37364;46.974;18.916;2022-08-05T00:42:55;27.52;;;8.55;;
51286;SDS011;37364;46.974;18.916;2022-08-05T00:45:27;13.82;;;7.93;;
51286;SDS011;37364;46.974;18.916;2022-08-05T00:48:08;55.67;;;22.15;;
51286;SDS011;37364;46.974;18.916;2022-08-05T00:50:39;93.38;;;29.70;;
51286;SDS011;37364;46.974;18.916;2022-08-05T00:53:15;90.85;;;32.08;;
51286;SDS011;37364;46.974;18.916;2022-08-05T00:56:06;103.72;;;33.90;;
51286;SDS011;37364;46.974;18.916;2022-08-05T00:58:37;84.00;;;30.90;;
51286;SDS011;37364;46.974;18.916;2022-08-05T01:01:10;79.35;;;31.25;;
51286;SDS011;37364;46.974;18.916;2022-08-05T01:04:01;61.50;;;28.77;;
51286;SDS011;37364;46.974;18.916;2022-08-05T01:06:39;58.25;;;25.77;;
51286;SDS011;37364;46.974;18.916;2022-08-05T01:09:17;47.47;;;23.27;;
51286;SDS011;37364;46.974;18.916;2022-08-05T01:11:49;51.45;;;22.20;;
51286;SDS011;37364;46.974;18.916;2022-08-05T01:14:36;49.80;;;20.67;;
51286;SDS011;37364;46.974;18.916;2022-08-05T01:17:15;37.25;;;17.38;;
51286;SDS011;37364;46.974;18.916;2022-08-05T01:19:52;32.05;;;15.70;;
51286;SDS011;37364;46.974;18.916;2022-08-05T01:22:34;38.92;;;14.43;;
51286;SDS011;37364;46.974;18.916;2022-08-05T01:30:58;20.73;;;10.05;;
51286;SDS011;37364;46.974;18.916;2022-08-05T01:33:34;26.45;;;9.80;;
51286;SDS011;37364;46.974;18.916;2022-08-05T01:36:15;20.42;;;8.25;;
51286;SDS011;37364;46.974;18.916;2022-08-05T01:38:57;16.77;;;8.20;;
51286;SDS011;37364;46.974;18.916;2022-08-05T01:41:29;17.17;;;7.70;;
51286;SDS011;37364;46.974;18.916;2022-08-05T01:44:12;20.58;;;7.78;;
51286;SDS011;37364;46.974;18.916;2022-08-05T01:46:45;18.98;;;9.10;;
51286;SDS011;37364;46.974;18.916;2022-08-05T01:49:18;25.00;;;8.73;;
51286;SDS011;37364;46.974;18.916;2022-08-05T01:52:12;24.75;;;9.32;;
51286;SDS011;37364;46.974;18.916;2022-08-05T01:54:45;42.70;;;14.80;;
51286;SDS011;37364;46.974;18.916;2022-08-05T01:57:27;21.25;;;10.75;;
51286;SDS011;37364;46.974;18.916;2022-08-05T02:00:25;24.15;;;10.82;;
51286;SDS011;37364;46.974;18.916;2022-08-05T02:03:00;14.00;;;7.10;;
51286;SDS011;37364;46.974;18.916;2022-08-05T02:05:54;20.63;;;8.45;;
51286;SDS011;37364;46.974;18.916;2022-08-05T02:08:26;43.13;;;9.38;;
51286;SDS011;37364;46.974;18.916;2022-08-05T02:10:59;28.95;;;9.25;;
51286;SDS011;37364;46.974;18.916;2022-08-05T02:13:50;20.35;;;9.38;;
51286;SDS011;37364;46.974;18.916;2022-08-05T02:16:29;20.20;;;7.75;;
51286;SDS011;37364;46.974;18.916;2022-08-05T02:19:06;25.23;;;8.25;;
51286;SDS011;37364;46.974;18.916;2022-08-05T02:21:45;22.88;;;7.03;;
51286;SDS011;37364;46.974;18.916;2022-08-05T02:24:21;15.10;;;7.35;;
51286;SDS011;37364;46.974;18.916;2022-08-05T02:26:57;13.05;;;6.88;;
51286;SDS011;37364;46.974;18.916;2022-08-05T02:29:36;17.55;;;6.45;;
51286;SDS011;37364;46.974;18.916;2022-08-05T02:32:28;12.73;;;6.18;;
51286;SDS011;37364;46.974;18.916;2022-08-05T02:35:08;13.20;;;6.50;;
51286;SDS011;37364;46.974;18.916;2022-08-05T02:37:54;11.95;;;6.30;;
51286;SDS011;37364;46.974;18.916;2022-08-05T02:40:28;20.90;;;5.97;;
51286;SDS011;37364;46.974;18.916;2022-08-05T02:43:00;9.75;;;5.60;;
51286;SDS011;37364;46.974;18.916;2022-08-05T02:45:36;15.35;;;6.25;;
51286;SDS011;37364;46.974;18.916;2022-08-05T02:48:27;13.70;;;5.82;;
51286;SDS011;37364;46.974;18.916;2022-08-05T02:50:59;10.82;;;6.20;;
51286;SDS011;37364;46.974;18.916;2022-08-05T02:53:31;16.52;;;6.85;;
51286;SDS011;37364;46.974;18.916;2022-08-05T02:56:05;21.98;;;6.28;;
51286;SDS011;37364;46.974;18.916;2022-08-05T02:58:44;18.75;;;5.72;;
51286;SDS011;37364;46.974;18.916;2022-08-05T03:01:18;8.70;;;5.80;;
51286;SDS011;37364;46.974;18.916;2022-08-05T03:03:57;9.80;;;5.22;;
51286;SDS011;37364;46.974;18.916;2022-08-05T03:06:39;15.32;;;6.15;;
51286;SDS011;37364;46.974;18.916;2022-08-05T03:09:25;14.27;;;5.53;;
51286;SDS011;37364;46.974;18.916;2022-08-05T03:12:04;13.60;;;5.18;;
51286;SDS011;37364;46.974;18.916;2022-08-05T03:14:35;10.50;;;5.97;;
51286;SDS011;37364;46.974;18.916;2022-08-05T03:17:13;18.80;;;5.70;;
51286;SDS011;37364;46.974;18.916;2022-08-05T03:19:49;15.88;;;5.85;;
51286;SDS011;37364;46.974;18.916;2022-08-05T03:22:24;20.73;;;6.13;;
51286;SDS011;37364;46.974;18.916;2022-08-05T03:24:58;16.65;;;6.72;;
51286;SDS011;37364;46.974;18.916;2022-08-05T03:27:50;9.60;;;5.60;;
51286;SDS011;37364;46.974;18.916;2022-08-05T03:30:26;13.63;;;6.13;;
51286;SDS011;37364;46.974;18.916;2022-08-05T03:33:00;8.15;;;6.32;;
51286;SDS011;37364;46.974;18.916;2022-08-05T03:35:34;22.27;;;7.88;;
51286;SDS011;37364;46.974;18.916;2022-08-05T03:38:07;16.23;;;6.68;;
51286;SDS011;37364;46.974;18.916;2022-08-05T03:43:14;57.47;;;22.85;;
51286;SDS011;37364;46.974;18.916;2022-08-05T03:46:06;51.05;;;20.95;;
51286;SDS011;37364;46.974;18.916;2022-08-05T03:48:38;22.42;;;12.27;;
51286;SDS011;37364;46.974;18.916;2022-08-05T03:51:16;29.10;;;11.77;;
51286;SDS011;37364;46.974;18.916;2022-08-05T03:54:11;24.38;;;11.82;;
51286;SDS011;37364;46.974;18.916;2022-08-05T03:57:06;21.88;;;11.82;;
51286;SDS011;37364;46.974;18.916;2022-08-05T03:59:48;16.00;;;9.43;;
51286;SDS011;37364;46.974;18.916;2022-08-05T04:02:28;25.95;;;8.10;;
51286;SDS011;37364;46.974;18.916;2022-08-05T04:05:10;26.20;;;7.90;;
51286;SDS011;37364;46.974;18.916;2022-08-05T04:07:45;38.35;;;22.33;;
51286;SDS011;37364;46.974;18.916;2022-08-05T04:10:24;31.75;;;12.25;;
51286;SDS011;37364;46.974;18.916;2022-08-05T04:13:03;15.70;;;7.00;;
51286;SDS011;37364;46.974;18.916;2022-08-05T04:15:34;15.95;;;7.55;;
51286;SDS011;37364;46.974;18.916;2022-08-05T04:18:25;16.83;;;7.35;;
51286;SDS011;37364;46.974;18.916;2022-08-05T04:21:01;17.90;;;6.53;;
51286;SDS011;37364;46.974;18.916;2022-08-05T04:23:39;14.82;;;7.18;;
51286;SDS011;37364;46.974;18.916;2022-08-05T04:26:30;16.42;;;6.85;;
51286;SDS011;37364;46.974;18.916;2022-08-05T04:29:00;24.98;;;6.43;;
51286;SDS011;37364;46.974;18.916;2022-08-05T04:31:33;9.40;;;6.03;;
51286;SDS011;37364;46.974;18.916;2022-08-05T04:34:04;17.58;;;6.72;;
51286;SDS011;37364;46.974;18.916;2022-08-05T04:36:55;15.85;;;6.00;;
51286;SDS011;37364;46.974;18.916;2022-08-05T04:39:29;14.90;;;5.75;;
51286;SDS011;37364;46.974;18.916;2022-08-05T04:42:01;15.98;;;6.13;;
51286;SDS011;37364;46.974;18.916;2022-08-05T04:44:32;13.25;;;6.28;;
51286;SDS011;37364;46.974;18.916;2022-08-05T04:47:05;17.92;;;5.85;;
51286;SDS011;37364;46.974;18.916;2022-08-05T04:49:37;13.80;;;5.38;;
51286;SDS011;37364;46.974;18.916;2022-08-05T04:52:27;13.25;;;5.30;;
51286;SDS011;37364;46.974;18.916;2022-08-05T04:55:03;19.40;;;5.82;;
51286;SDS011;37364;46.974;18.916;2022-08-05T04:57:42;7.43;;;5.43;;
51286;SDS011;37364;46.974;18.916;2022-08-05T05:00:19;11.18;;;5.10;;
51286;SDS011;37364;46.974;18.916;2022-08-05T05:02:50;19.77;;;5.55;;
51286;SDS011;37364;46.974;18.916;2022-08-05T05:05:20;14.30;;;4.97;;
51286;SDS011;37364;46.974;18.916;2022-08-05T05:07:54;19.48;;;5.03;;
51286;SDS011;37364;46.974;18.916;2022-08-05T05:10:31;20.42;;;5.30;;
51286;SDS011;37364;46.974;18.916;2022-08-05T05:13:21;7.83;;;4.73;;
51286;SDS011;37364;46.974;18.916;2022-08-05T05:15:57;10.25;;;4.68;;
51286;SDS011;37364;46.974;18.916;2022-08-05T05:18:32;5.38;;;4.15;;
51286;SDS011;37364;46.974;18.916;2022-08-05T05:21:03;20.15;;;4.55;;
51286;SDS011;37364;46.974;18.916;2022-08-05T05:23:35;12.82;;;4.50;;
51286;SDS011;37364;46.974;18.916;2022-08-05T05:26:27;6.90;;;4.05;;
51286;SDS011;37364;46.974;18.916;2022-08-05T05:28:59;15.68;;;4.80;;
51286;SDS011;37364;46.974;18.916;2022-08-05T05:31:40;8.40;;;3.88;;
51286;SDS011;37364;46.974;18.916;2022-08-05T05:34:12;13.63;;;4.43;;
51286;SDS011;37364;46.974;18.916;2022-08-05T05:36:49;8.68;;;4.20;;
51286;SDS011;37364;46.974;18.916;2022-08-05T05:39:20;10.38;;;4.20;;
51286;SDS011;37364;46.974;18.916;2022-08-05T05:42:00;6.10;;;3.72;;
51286;SDS011;37364;46.974;18.916;2022-08-05T05:44:32;10.93;;;4.30;;
51286;SDS011;37364;46.974;18.916;2022-08-05T05:47:08;11.35;;;4.70;;
51286;SDS011;37364;46.974;18.916;2022-08-05T05:49:47;15.80;;;4.57;;
51286;SDS011;37364;46.974;18.916;2022-08-05T05:52:27;11.10;;;4.10;;
51286;SDS011;37364;46.974;18.916;2022-08-05T05:55:07;16.50;;;3.55;;
51286;SDS011;37364;46.974;18.916;2022-08-05T05:57:42;15.15;;;3.88;;
51286;SDS011;37364;46.974;18.916;2022-08-05T06:00:19;12.55;;;3.80;;
51286;SDS011;37364;46.974;18.916;2022-08-05T06:02:59;18.45;;;4.25;;
51286;SDS011;37364;46.974;18.916;2022-08-05T06:05:51;18.48;;;4.28;;
51286;SDS011;37364;46.974;18.916;2022-08-05T06:08:23;11.90;;;3.92;;
51286;SDS011;37364;46.974;18.916;2022-08-05T06:10:58;18.92;;;4.28;;
51286;SDS011;37364;46.974;18.916;2022-08-05T06:13:32;19.45;;;4.57;;
51286;SDS011;37364;46.974;18.916;2022-08-05T06:16:16;16.50;;;4.38;;
51286;SDS011;37364;46.974;18.916;2022-08-05T06:18:56;25.05;;;4.20;;
51286;SDS011;37364;46.974;18.916;2022-08-05T06:21:30;19.80;;;3.88;;
51286;SDS011;37364;46.974;18.916;2022-08-05T06:24:04;22.75;;;5.03;;
51286;SDS011;37364;46.974;18.916;2022-08-05T06:26:37;24.83;;;3.78;;
51286;SDS011;37364;46.974;18.916;2022-08-05T06:29:20;49.53;;;5.32;;
51286;SDS011;37364;46.974;18.916;2022-08-05T06:32:11;17.85;;;4.40;;
51286;SDS011;37364;46.974;18.916;2022-08-05T06:34:54;25.02;;;5.15;;
51286;SDS011;37364;46.974;18.916;2022-08-05T06:37:40;13.57;;;4.43;;
51286;SDS011;37364;46.974;18.916;2022-08-05T06:40:23;28.58;;;5.13;;
51286;SDS011;37364;46.974;18.916;2022-08-05T06:42:58;13.00;;;4.10;;
51286;SDS011;37364;46.974;18.916;2022-08-05T06:45:32;24.13;;;4.70;;
51286;SDS011;37364;46.974;18.916;2022-08-05T06:48:22;11.93;;;3.83;;
51286;SDS011;37364;46.974;18.916;2022-08-05T06:51:13;21.40;;;3.95;;
51286;SDS011;37364;46.974;18.916;2022-08-05T06:53:53;21.40;;;4.22;;
51286;SDS011;37364;46.974;18.916;2022-08-05T06:56:25;34.13;;;4.30;;
51286;SDS011;37364;46.974;18.916;2022-08-05T06:59:00;12.55;;;3.78;;
51286;SDS011;37364;46.974;18.916;2022-08-05T07:01:38;11.90;;;4.07;;
51286;SDS011;37364;46.974;18.916;2022-08-05T07:04:11;21.95;;;3.13;;
51286;SDS011;37364;46.974;18.916;2022-08-05T07:09:16;11.18;;;3.00;;
51286;SDS011;37364;46.974;18.916;2022-08-05T07:11:50;14.73;;;3.55;;
51286;SDS011;37364;46.974;18.916;2022-08-05T07:14:26;20.48;;;3.83;;
51286;SDS011;37364;46.974;18.916;2022-08-05T07:20:49;12.65;;;2.97;;
51286;SDS011;37364;46.974;18.916;2022-08-05T07:23:31;14.52;;;3.28;;
51286;SDS011;37364;46.974;18.916;2022-08-05T07:26:14;9.68;;;2.95;;
51286;SDS011;37364;46.974;18.916;2022-08-05T07:28:50;11.88;;;2.72;;
51286;SDS011;37364;46.974;18.916;2022-08-05T07:31:21;15.02;;;2.60;;
51286;SDS011;37364;46.974;18.916;2022-08-05T07:34:20;5.13;;;2.45;;
51286;SDS011;37364;46.974;18.916;2022-08-05T07:36:56;21.00;;;3.03;;
51286;SDS011;37364;46.974;18.916;2022-08-05T07:39:27;11.98;;;2.88;;
51286;SDS011;37364;46.974;18.916;2022-08-05T07:42:18;14.55;;;3.25;;
51286;SDS011;37364;46.974;18.916;2022-08-05T07:44:59;16.52;;;3.10;;
51286;SDS011;37364;46.974;18.916;2022-08-05T07:47:34;26.02;;;3.92;;
51286;SDS011;37364;46.974;18.916;2022-08-05T07:50:08;22.55;;;4.43;;
51286;SDS011;37364;46.974;18.916;2022-08-05T07:52:45;11.85;;;3.42;;
51286;SDS011;37364;46.974;18.916;2022-08-05T07:55:16;12.75;;;3.17;;
51286;SDS011;37364;46.974;18.916;2022-08-05T07:58:06;26.98;;;3.53;;
51286;SDS011;37364;46.974;18.916;2022-08-05T08:00:57;15.30;;;2.90;;
51286;SDS011;37364;46.974;18.916;2022-08-05T08:03:37;8.18;;;3.10;;
51286;SDS011;37364;46.974;18.916;2022-08-05T08:06:10;19.30;;;4.43;;
51286;SDS011;37364;46.974;18.916;2022-08-05T08:08:44;19.83;;;4.32;;
51286;SDS011;37364;46.974;18.916;2022-08-05T08:11:14;14.77;;;3.83;;
51286;SDS011;37364;46.974;18.916;2022-08-05T08:13:53;11.10;;;4.38;;
51286;SDS011;37364;46.974;18.916;2022-08-05T08:16:26;18.92;;;5.88;;
51286;SDS011;37364;46.974;18.916;2022-08-05T08:19:15;18.05;;;5.93;;
51286;SDS011;37364;46.974;18.916;2022-08-05T08:22:06;10.85;;;5.70;;
51286;SDS011;37364;46.974;18.916;2022-08-05T08:24:47;24.60;;;6.03;;
51286;SDS011;37364;46.974;18.916;2022-08-05T08:27:18;16.30;;;5.50;;
51286;SDS011;37364;46.974;18.916;2022-08-05T08:30:06;31.98;;;6.13;;
51286;SDS011;37364;46.974;18.916;2022-08-05T08:32:58;19.70;;;5.53;;
51286;SDS011;37364;46.974;18.916;2022-08-05T08:35:34;14.52;;;5.15;;
51286;SDS011;37364;46.974;18.916;2022-08-05T08:38:17;36.38;;;6.13;;
51286;SDS011;37364;46.974;18.916;2022-08-05T08:41:05;27.65;;;6.55;;
51286;SDS011;37364;46.974;18.916;2022-08-05T08:43:40;32.55;;;5.82;;
51286;SDS011;37364;46.974;18.916;2022-08-05T08:49:03;23.15;;;5.88;;
51286;SDS011;37364;46.974;18.916;2022-08-05T08:51:57;17.25;;;7.28;;
51286;SDS011;37364;46.974;18.916;2022-08-05T08:54:39;27.80;;;6.50;;
51286;SDS011;37364;46.974;18.916;2022-08-05T08:57:17;25.10;;;6.88;;
51286;SDS011;37364;46.974;18.916;2022-08-05T08:59:48;19.08;;;6.18;;
51286;SDS011;37364;46.974;18.916;2022-08-05T09:02:21;23.90;;;5.72;;
51286;SDS011;37364;46.974;18.916;2022-08-05T09:04:53;24.77;;;5.05;;
51286;SDS011;37364;46.974;18.916;2022-08-05T09:07:43;11.55;;;4.65;;
51286;SDS011;37364;46.974;18.916;2022-08-05T09:10:24;21.73;;;5.03;;
51286;SDS011;37364;46.974;18.916;2022-08-05T09:12:58;21.95;;;5.47;;
51286;SDS011;37364;46.974;18.916;2022-08-05T09:15:30;30.67;;;5.60;;
51286;SDS011;37364;46.974;18.916;2022-08-05T09:18:05;19.42;;;4.45;;
51286;SDS011;37364;46.974;18.916;2022-08-05T09:20:39;24.10;;;4.97;;
51286;SDS011;37364;46.974;18.916;2022-08-05T09:23:10;20.08;;;5.75;;
51286;SDS011;37364;46.974;18.916;2022-08-05T09:25:46;11.65;;;4.93;;
51286;SDS011;37364;46.974;18.916;2022-08-05T09:28:32;15.70;;;3.97;;
51286;SDS011;37364;46.974;18.916;2022-08-05T09:31:05;21.90;;;4.45;;
51286;SDS011;37364;46.974;18.916;2022-08-05T09:33:58;15.27;;;4.38;;
51286;SDS011;37364;46.974;18.916;2022-08-05T09:36:38;17.52;;;5.20;;
51286;SDS011;37364;46.974;18.916;2022-08-05T09:39:22;19.30;;;4.85;;
51286;SDS011;37364;46.974;18.916;2022-08-05T09:42:15;24.98;;;4.70;;
51286;SDS011;37364;46.974;18.916;2022-08-05T09:44:56;12.05;;;5.45;;
51286;SDS011;37364;46.974;18.916;2022-08-05T09:47:55;30.67;;;7.47;;
51286;SDS011;37364;46.974;18.916;2022-08-05T09:50:36;28.20;;;6.97;;
51286;SDS011;37364;46.974;18.916;2022-08-05T09:53:11;22.17;;;6.35;;
51286;SDS011;37364;46.974;18.916;2022-08-05T09:56:02;9.15;;;3.97;;
51286;SDS011;37364;46.974;18.916;2022-08-05T09:58:39;14.98;;;3.65;;
51286;SDS011;37364;46.974;18.916;2022-08-05T10:01:18;11.27;;;3.80;;
51286;SDS011;37364;46.974;18.916;2022-08-05T10:03:59;14.48;;;3.45;;
51286;SDS011;37364;46.974;18.916;2022-08-05T10:06:36;35.22;;;4.70;;
51286;SDS011;37364;46.974;18.916;2022-08-05T10:09:20;12.48;;;2.92;;
51286;SDS011;37364;46.974;18.916;2022-08-05T10:11:54;9.38;;;3.72;;
51286;SDS011;37364;46.974;18.916;2022-08-05T10:15:05;14.82;;;3.47;;
51286;SDS011;37364;46.974;18.916;2022-08-05T10:18:05;18.70;;;3.20;;
51286;SDS011;37364;46.974;18.916;2022-08-05T10:20:38;8.00;;;2.45;;
51286;SDS011;37364;46.974;18.916;2022-08-05T10:23:14;12.00;;;3.10;;
51286;SDS011;37364;46.974;18.916;2022-08-05T10:26:07;10.25;;;2.70;;
51286;SDS011;37364;46.974;18.916;2022-08-05T10:28:41;9.85;;;3.00;;
51286;SDS011;37364;46.974;18.916;2022-08-05T10:31:13;15.63;;;3.10;;
51286;SDS011;37364;46.974;18.916;2022-08-05T10:36:39;7.72;;;3.83;;
51286;SDS011;37364;46.974;18.916;2022-08-05T10:39:13;5.45;;;3.63;;
51286;SDS011;37364;46.974;18.916;2022-08-05T10:42:09;11.60;;;2.70;;
51286;SDS011;37364;46.974;18.916;2022-08-05T10:44:44;3.72;;;2.00;;
51286;SDS011;37364;46.974;18.916;2022-08-05T10:47:15;12.02;;;2.28;;
51286;SDS011;37364;46.974;18.916;2022-08-05T10:50:03;6.78;;;2.95;;
51286;SDS011;37364;46.974;18.916;2022-08-05T10:52:58;11.77;;;2.88;;
51286;SDS011;37364;46.974;18.916;2022-08-05T10:55:29;8.50;;;2.75;;
51286;SDS011;37364;46.974;18.916;2022-08-05T10:58:20;3.65;;;2.22;;
51286;SDS011;37364;46.974;18.916;2022-08-05T11:01:10;7.82;;;2.35;;
51286;SDS011;37364;46.974;18.916;2022-08-05T11:04:03;16.63;;;3.60;;
51286;SDS011;37364;46.974;18.916;2022-08-05T11:07:03;16.00;;;3.15;;
51286;SDS011;37364;46.974;18.916;2022-08-05T11:09:38;11.27;;;3.08;;
51286;SDS011;37364;46.974;18.916;2022-08-05T11:15:21;11.25;;;2.55;;
51286;SDS011;37364;46.974;18.916;2022-08-05T11:18:25;21.27;;;3.00;;
51286;SDS011;37364;46.974;18.916;2022-08-05T11:21:00;4.03;;;2.53;;
51286;SDS011;37364;46.974;18.916;2022-08-05T11:23:50;17.73;;;3.13;;
51286;SDS011;37364;46.974;18.916;2022-08-05T11:26:39;5.03;;;2.55;;
51286;SDS011;37364;46.974;18.916;2022-08-05T11:32:21;15.45;;;2.03;;
51286;SDS011;37364;46.974;18.916;2022-08-05T11:34:53;14.38;;;2.22;;
51286;SDS011;37364;46.974;18.916;2022-08-05T11:37:41;8.10;;;2.05;;
51286;SDS011;37364;46.974;18.916;2022-08-05T11:43:54;7.95;;;1.80;;
51286;SDS011;37364;46.974;18.916;2022-08-05T11:46:34;4.68;;;1.92;;
51286;SDS011;37364;46.974;18.916;2022-08-05T11:49:26;7.57;;;2.20;;
51286;SDS011;37364;46.974;18.916;2022-08-05T11:52:01;12.57;;;2.50;;
51286;SDS011;37364;46.974;18.916;2022-08-05T11:54:37;10.65;;;2.20;;
51286;SDS011;37364;46.974;18.916;2022-08-05T11:57:16;6.55;;;2.25;;
51286;SDS011;37364;46.974;18.916;2022-08-05T11:59:51;20.17;;;3.08;;
51286;SDS011;37364;46.974;18.916;2022-08-05T12:02:25;6.88;;;2.88;;
51286;SDS011;37364;46.974;18.916;2022-08-05T12:04:59;7.65;;;2.30;;
51286;SDS011;37364;46.974;18.916;2022-08-05T12:07:34;17.05;;;2.65;;
51286;SDS011;37364;46.974;18.916;2022-08-05T12:10:26;8.05;;;2.17;;
51286;SDS011;37364;46.974;18.916;2022-08-05T12:13:15;13.35;;;2.70;;
51286;SDS011;37364;46.974;18.916;2022-08-05T12:16:06;13.88;;;2.20;;
51286;SDS011;37364;46.974;18.916;2022-08-05T12:18:41;12.30;;;2.33;;
51286;SDS011;37364;46.974;18.916;2022-08-05T12:21:19;8.18;;;2.13;;
51286;SDS011;37364;46.974;18.916;2022-08-05T12:23:59;17.13;;;2.45;;
51286;SDS011;37364;46.974;18.916;2022-08-05T12:26:33;7.38;;;2.90;;
51286;SDS011;37364;46.974;18.916;2022-08-05T12:29:08;8.55;;;2.75;;
51286;SDS011;37364;46.974;18.916;2022-08-05T12:31:45;9.15;;;2.88;;
51286;SDS011;37364;46.974;18.916;2022-08-05T12:34:20;17.40;;;2.47;;
51286;SDS011;37364;46.974;18.916;2022-08-05T12:36:54;14.73;;;2.28;;
51286;SDS011;37364;46.974;18.916;2022-08-05T12:39:28;12.88;;;2.22;;
51286;SDS011;37364;46.974;18.916;2022-08-05T12:42:08;6.05;;;1.90;;
51286;SDS011;37364;46.974;18.916;2022-08-05T12:44:43;10.32;;;1.73;;
51286;SDS011;37364;46.974;18.916;2022-08-05T12:47:24;9.40;;;2.35;;
51286;SDS011;37364;46.974;18.916;2022-08-05T12:49:57;11.95;;;2.15;;
51286;SDS011;37364;46.974;18.916;2022-08-05T12:52:32;13.30;;;2.60;;
51286;SDS011;37364;46.974;18.916;2022-08-05T12:55:20;7.07;;;2.15;;
51286;SDS011;37364;46.974;18.916;2022-08-05T12:57:54;6.05;;;2.35;;
51286;SDS011;37364;46.974;18.916;2022-08-05T13:00:48;16.35;;;3.20;;
51286;SDS011;37364;46.974;18.916;2022-08-05T13:03:39;8.85;;;2.22;;
51286;SDS011;37364;46.974;18.916;2022-08-05T13:06:14;11.13;;;2.45;;
51286;SDS011;37364;46.974;18.916;2022-08-05T13:08:45;13.40;;;2.17;;
51286;SDS011;37364;46.974;18.916;2022-08-05T13:11:21;15.63;;;3.03;;
51286;SDS011;37364;46.974;18.916;2022-08-05T13:14:16;17.35;;;4.70;;
51286;SDS011;37364;46.974;18.916;2022-08-05T13:17:06;13.32;;;3.17;;
51286;SDS011;37364;46.974;18.916;2022-08-05T13:19:39;5.78;;;2.72;;
51286;SDS011;37364;46.974;18.916;2022-08-05T13:22:19;11.07;;;3.25;;
51286;SDS011;37364;46.974;18.916;2022-08-05T13:25:05;11.90;;;2.67;;
51286;SDS011;37364;46.974;18.916;2022-08-05T13:27:48;12.20;;;3.58;;
51286;SDS011;37364;46.974;18.916;2022-08-05T13:30:21;12.57;;;3.53;;
51286;SDS011;37364;46.974;18.916;2022-08-05T13:33:05;11.30;;;3.05;;
51286;SDS011;37364;46.974;18.916;2022-08-05T13:35:42;6.70;;;2.67;;
51286;SDS011;37364;46.974;18.916;2022-08-05T13:38:17;6.95;;;2.20;;
51286;SDS011;37364;46.974;18.916;2022-08-05T13:40:56;13.02;;;3.05;;
51286;SDS011;37364;46.974;18.916;2022-08-05T13:43:29;17.27;;;2.80;;
51286;SDS011;37364;46.974;18.916;2022-08-05T13:46:19;4.70;;;2.58;;
51286;SDS011;37364;46.974;18.916;2022-08-05T13:49:12;4.95;;;1.90;;
51286;SDS011;37364;46.974;18.916;2022-08-05T13:51:43;20.52;;;2.65;;
51286;SDS011;37364;46.974;18.916;2022-08-05T13:54:14;6.50;;;2.67;;
51286;SDS011;37364;46.974;18.916;2022-08-05T13:56:50;8.05;;;2.03;;
51286;SDS011;37364;46.974;18.916;2022-08-05T13:59:22;9.52;;;2.30;;
51286;SDS011;37364;46.974;18.916;2022-08-05T14:01:56;3.53;;;2.17;;
51286;SDS011;37364;46.974;18.916;2022-08-05T14:04:31;4.10;;;2.05;;
51286;SDS011;37364;46.974;18.916;2022-08-05T14:07:17;5.47;;;2.75;;
51286;SDS011;37364;46.974;18.916;2022-08-05T14:10:09;9.40;;;3.03;;
51286;SDS011;37364;46.974;18.916;2022-08-05T14:12:53;5.82;;;2.35;;
51286;SDS011;37364;46.974;18.916;2022-08-05T14:15:24;15.90;;;2.88;;
51286;SDS011;37364;46.974;18.916;2022-08-05T14:18:17;14.65;;;2.65;;
51286;SDS011;37364;46.974;18.916;2022-08-05T14:20:52;11.45;;;2.22;;
51286;SDS011;37364;46.974;18.916;2022-08-05T14:23:25;17.42;;;2.40;;
51286;SDS011;37364;46.974;18.916;2022-08-05T14:26:02;4.40;;;2.25;;
51286;SDS011;37364;46.974;18.916;2022-08-05T14:28:32;8.40;;;2.17;;
51286;SDS011;37364;46.974;18.916;2022-08-05T14:31:17;8.88;;;2.10;;
51286;SDS011;37364;46.974;18.916;2022-08-05T14:34:09;6.18;;;2.00;;
51286;SDS011;37364;46.974;18.916;2022-08-05T14:36:41;18.20;;;2.50;;
51286;SDS011;37364;46.974;18.916;2022-08-05T14:39:14;4.78;;;2.30;;
51286;SDS011;37364;46.974;18.916;2022-08-05T14:41:49;6.53;;;2.47;;
51286;SDS011;37364;46.974;18.916;2022-08-05T14:44:39;4.63;;;2.17;;
51286;SDS011;37364;46.974;18.916;2022-08-05T14:49:41;12.93;;;2.20;;
51286;SDS011;37364;46.974;18.916;2022-08-05T14:52:30;10.00;;;2.05;;
51286;SDS011;37364;46.974;18.916;2022-08-05T14:55:18;13.18;;;2.60;;
51286;SDS011;37364;46.974;18.916;2022-08-05T14:57:50;10.50;;;3.00;;
51286;SDS011;37364;46.974;18.916;2022-08-05T15:00:22;6.60;;;2.90;;
51286;SDS011;37364;46.974;18.916;2022-08-05T15:02:55;15.30;;;2.50;;
51286;SDS011;37364;46.974;18.916;2022-08-05T15:05:25;12.85;;;2.50;;
51286;SDS011;37364;46.974;18.916;2022-08-05T15:08:18;6.90;;;2.42;;
51286;SDS011;37364;46.974;18.916;2022-08-05T15:13:38;14.90;;;2.60;;
51286;SDS011;37364;46.974;18.916;2022-08-05T15:16:12;11.48;;;2.58;;
51286;SDS011;37364;46.974;18.916;2022-08-05T15:18:43;6.20;;;1.88;;
51286;SDS011;37364;46.974;18.916;2022-08-05T15:21:13;21.80;;;2.70;;
51286;SDS011;37364;46.974;18.916;2022-08-05T15:23:49;7.68;;;1.80;;
51286;SDS011;37364;46.974;18.916;2022-08-05T15:26:19;6.05;;;1.88;;
51286;SDS011;37364;46.974;18.916;2022-08-05T15:28:57;3.72;;;1.67;;
51286;SDS011;37364;46.974;18.916;2022-08-05T15:31:28;15.05;;;2.40;;
51286;SDS011;37364;46.974;18.916;2022-08-05T15:34:00;18.05;;;2.58;;
51286;SDS011;37364;46.974;18.916;2022-08-05T15:36:51;11.00;;;2.38;;
51286;SDS011;37364;46.974;18.916;2022-08-05T15:39:34;13.25;;;2.20;;
51286;SDS011;37364;46.974;18.916;2022-08-05T15:42:26;5.00;;;2.00;;
51286;SDS011;37364;46.974;18.916;2022-08-05T15:45:17;9.80;;;2.10;;
51286;SDS011;37364;46.974;18.916;2022-08-05T15:48:04;7.03;;;2.30;;
51286;SDS011;37364;46.974;18.916;2022-08-05T15:50:40;17.13;;;1.92;;
51286;SDS011;37364;46.974;18.916;2022-08-05T15:53:11;8.07;;;1.90;;
51286;SDS011;37364;46.974;18.916;2022-08-05T15:55:44;10.82;;;2.00;;
51286;SDS011;37364;46.974;18.916;2022-08-05T15:58:30;9.23;;;1.95;;
51286;SDS011;37364;46.974;18.916;2022-08-05T16:01:03;9.48;;;2.47;;
51286;SDS011;37364;46.974;18.916;2022-08-05T16:03:43;10.75;;;2.25;;
51286;SDS011;37364;46.974;18.916;2022-08-05T16:06:16;12.63;;;1.92;;
51286;SDS011;37364;46.974;18.916;2022-08-05T16:08:49;5.93;;;2.67;;